M I D A S
Marine Information and Data Acquisition System
Tripno 527 of the Zeeleeuw from 2003-06-30 06:33:44 to 2003-06-30 15:02:40
Back to CruiseResearch ActivitiesStationsMapUnderway DataData graphs

EquipmentUnitsComment
TimeDGPSUTC
LatitudeDGPSDM.mWGS84
LongitudeDGPSDM.mWGS84
HeadingGyrodeg 
SOGDGPSknotsSpeed over ground
COGDGPSdegCourse over ground
DepthEcho soundermeters200 kHz
Missing or incorrect values are displayed as -999
Navigation data collected by the RV Zeeleeuw from 2003-06-30 06:33:44 to 2003-06-30 15:02:40
                                                                                    Next 1000 lines
Time Latitude Longitude Heading SOG COG Depth
2003-06-30 06:33:52 51°13.59 2°56.12 126.6 0.1 314 6.6
2003-06-30 06:33:56 51°13.59 2°56.12 126.6 0.1 304 6.6
2003-06-30 06:34:02 51°13.59 2°56.12 126.6 0.1 305 6.6
2003-06-30 06:34:06 51°13.59 2°56.12 126.6   223 6.6
2003-06-30 06:34:12 51°13.59 2°56.12 126.9 0.1 176 6.6
2003-06-30 06:34:16 51°13.59 2°56.12 127.4 0.1 162 6.7
2003-06-30 06:34:22 51°13.59 2°56.12 127.9 0.1 155 6.7
2003-06-30 06:34:28 51°13.59 2°56.12 128.4 0.1 143 6.7
2003-06-30 06:34:32 51°13.59 2°56.12 128.7 0.1 160 6.7
2003-06-30 06:34:36 51°13.59 2°56.12 128.7   5 6.7
2003-06-30 06:34:42 51°13.59 2°56.12 128.4   345 6.7
2003-06-30 06:34:46 51°13.59 2°56.12 127.7 0.1 51 6.7
2003-06-30 06:34:52 51°13.59 2°56.12 127 0.1 99 6.7
2003-06-30 06:34:56 51°13.59 2°56.12 126.3 0.1 90 6.8
2003-06-30 06:35:02 51°13.59 2°56.12 125.5 0.1 176 6.8
2003-06-30 06:35:08 51°13.59 2°56.12 124.4 0.1 20 6.8
2003-06-30 06:35:12 51°13.59 2°56.12 123.9 0.1 212 6.8
2003-06-30 06:35:16 51°13.59 2°56.12 123.4 0.1 189 6.8
2003-06-30 06:35:22 51°13.59 2°56.12 122.9   185 6.8
2003-06-30 06:35:26 51°13.59 2°56.12 122 0.1 191 6.8
2003-06-30 06:35:32 51°13.59 2°56.12 121.3 0.1 191 6.8
2003-06-30 06:35:36 51°13.59 2°56.12 120.6   201 6.9
2003-06-30 06:35:42 51°13.59 2°56.12 119.7 0.1 196 6.8
2003-06-30 06:35:48 51°13.59 2°56.12 119 0.1 196 6.8
2003-06-30 06:35:52 51°13.59 2°56.12 118.3 0.1 200 6.8
2003-06-30 06:35:56 51°13.59 2°56.12 117.6 0.1 194 6.7
2003-06-30 06:36:02 51°13.59 2°56.12 117 0.1 194 6.7
2003-06-30 06:36:06 51°13.59 2°56.12 116 0.1 194 6.6
2003-06-30 06:36:12 51°13.59 2°56.12 115 0.1 196 6.6
2003-06-30 06:36:16 51°13.59 2°56.12 114 0.1 199 6.6
2003-06-30 06:36:22 51°13.59 2°56.12 113.2 0.1 212 6.5
2003-06-30 06:36:26 51°13.59 2°56.12 112.4 0.1 245 6.5
2003-06-30 06:36:32 51°13.59 2°56.12 111.9 0.1 257 6.6
2003-06-30 06:36:36 51°13.59 2°56.12 111.6 0.2 277 6.7
2003-06-30 06:36:42 51°13.59 2°56.12 111.5 0.2 274 6.7
2003-06-30 06:36:46 51°13.59 2°56.12 111.4 0.2 284 6.7
2003-06-30 06:36:52 51°13.59 2°56.12 111.3 0.2 284 6.6
2003-06-30 06:36:56 51°13.59 2°56.11 111.3 0.2 289 6.4
2003-06-30 06:37:02 51°13.59 2°56.11 111.3 0.3 288 6.3
2003-06-30 06:37:06 51°13.59 2°56.11 111.5 0.4 291 6.3
2003-06-30 06:37:12 51°13.59 2°56.11 111.7 0.5 290 6.3
2003-06-30 06:37:16 51°13.59 2°56.11 111.8 0.5 294 6.3
2003-06-30 06:37:22 51°13.59 2°56.11 112 0.6 292 6.3
2003-06-30 06:37:28 51°13.59 2°56.11 112.2 0.6 295 6.3
2003-06-30 06:37:32 51°13.59 2°56.11 112.4 0.6 293 6.3
2003-06-30 06:37:36 51°13.6 2°56.11 112.5 0.7 296 6.3
2003-06-30 06:37:42 51°13.6 2°56.11 112.7 0.7 294 6.3
2003-06-30 06:37:46 51°13.6 2°56.1 112.9 0.8 297 6.2
2003-06-30 06:37:52 51°13.6 2°56.1 113 0.9 294 6.3
2003-06-30 06:37:56 51°13.6 2°56.1 113 1 295 6.3
2003-06-30 06:38:02 51°13.6 2°56.1 113 1.2 293 6.4
2003-06-30 06:38:08 51°13.6 2°56.09 113.2 1.5 293 6.6
2003-06-30 06:38:12 51°13.6 2°56.09 113.2 1.6 293 5
2003-06-30 06:38:18 51°13.6 2°56.09 113.4 1.9 292 -999
2003-06-30 06:38:22 51°13.6 2°56.08 113.6 2.2 292 -999
2003-06-30 06:38:28 51°13.6 2°56.08 113.6 2.4 292 -999
2003-06-30 06:38:32 51°13.6 2°56.07 113.7 2.6 292 -999
2003-06-30 06:38:38 51°13.61 2°56.07 113.7 2.8 291 -999
2003-06-30 06:38:44 51°13.61 2°56.06 113.7 3.1 290 -999
2003-06-30 06:38:48 51°13.61 2°56.05 113.9 3.3 291 -999
2003-06-30 06:38:52 51°13.61 2°56.05 114.5 3.4 291 -999
2003-06-30 06:38:58 51°13.61 2°56.04 115.5 3.7 292 -999
2003-06-30 06:39:02 51°13.61 2°56.03 116.2 4 293 -999
2003-06-30 06:39:08 51°13.62 2°56.02 116.9 4.2 293 -999
2003-06-30 06:39:12 51°13.62 2°56.01 117.5 4.4 293 -999
2003-06-30 06:39:18 51°13.62 2°56 118.2 4.6 294 -999
2003-06-30 06:39:22 51°13.62 2°56 118.3 4.8 295 -999
2003-06-30 06:39:28 51°13.63 2°55.98 118.4 4.9 295 -999
2003-06-30 06:39:32 51°13.63 2°55.98 118.3 5 295 -999
2003-06-30 06:39:38 51°13.63 2°55.96 118.3 5.1 295 -999
2003-06-30 06:39:42 51°13.64 2°55.95 118.1 5.2 295 -999
2003-06-30 06:39:48 51°13.64 2°55.94 117.8 5.3 295 -999
2003-06-30 06:39:52 51°13.64 2°55.93 117.3 5.3 295 -999
2003-06-30 06:39:58 51°13.65 2°55.92 116.1 5.3 294 -999
2003-06-30 06:40:02 51°13.65 2°55.91 115.3 5.2 293 -999
2003-06-30 06:40:08 51°13.65 2°55.9 113.9 5.1 292 -999
2003-06-30 06:40:12 51°13.65 2°55.89 112 5 293 -999
2003-06-30 06:40:18 51°13.66 2°55.88 110.3 4.7 290 -999
2003-06-30 06:40:22 51°13.66 2°55.87 108.2 4.4 288 -999
2003-06-30 06:40:28 51°13.66 2°55.86 106.2 4.2 287 -999
2003-06-30 06:40:32 51°13.66 2°55.85 104 4.1 285 -999
2003-06-30 06:40:36 51°13.66 2°55.85 101.9 4 284 9.2
2003-06-30 06:40:42 51°13.66 2°55.84 100.1 3.8 283 9.4
2003-06-30 06:40:48 51°13.66 2°55.83 98.3 3.6 280 9.2
2003-06-30 06:40:52 51°13.66 2°55.82 96.1 3.5 278 8.6
2003-06-30 06:40:56 51°13.66 2°55.82 93.1 3.4 276 8.6
2003-06-30 06:41:02 51°13.66 2°55.81 90.8 3.2 275 8.6
2003-06-30 06:41:06 51°13.66 2°55.8 89.2 3.1 272 8.7
2003-06-30 06:41:12 51°13.66 2°55.79 87.4 2.9 271 8.4
2003-06-30 06:41:16 51°13.66 2°55.79 85 2.8 269 8.4
2003-06-30 06:41:22 51°13.66 2°55.78 83.4 2.6 268 8.3
2003-06-30 06:41:28 51°13.66 2°55.78 81 1.9 266 8.2
2003-06-30 06:41:32 51°13.66 2°55.77 77.2 1.5 265 8
2003-06-30 06:41:36 51°13.66 2°55.77 73.3 1.2 268 8
2003-06-30 06:41:42 51°13.66 2°55.77 70.5 0.8 267 8
2003-06-30 06:41:46 51°13.66 2°55.77 67.1 0.5 281 8.1
2003-06-30 06:41:52 51°13.66 2°55.77 63.8 0.4 295 8.2
2003-06-30 06:41:56 51°13.66 2°55.77 60.2 0.3 330 8.3
2003-06-30 06:42:02 51°13.67 2°55.77 56.3 0.5 11 8.4
2003-06-30 06:42:08 51°13.67 2°55.77 51.9 0.8 20 8.6
2003-06-30 06:42:12 51°13.67 2°55.77 47.1 0.9 23 8.9
2003-06-30 06:42:16 51°13.67 2°55.77 42 1.1 21 9.2
2003-06-30 06:42:22 51°13.67 2°55.77 36.9 1.5 20 9.6
2003-06-30 06:42:26 51°13.67 2°55.77 31.5 1.8 16 9.8
2003-06-30 06:42:32 51°13.68 2°55.77 25.8 2 13 10.1
2003-06-30 06:42:36 51°13.68 2°55.77 20.1 2.2 8 11.3
2003-06-30 06:42:42 51°13.68 2°55.77 13.1 2.4 3 12
2003-06-30 06:42:48 51°13.69 2°55.77 7.5 2.7 356 12.1
2003-06-30 06:42:52 51°13.69 2°55.77 3 2.8 354 12
2003-06-30 06:42:56 51°13.69 2°55.77 357.2 2.9 348 12.3
2003-06-30 06:43:02 51°13.7 2°55.77 351.4 3.1 343 12.8
2003-06-30 06:43:06 51°13.7 2°55.77 345.4 3.2 336 12
2003-06-30 06:43:12 51°13.71 2°55.76 339.4 3.4 332 11.7
2003-06-30 06:43:16 51°13.71 2°55.76 335.1 3.6 330 11.5
2003-06-30 06:43:22 51°13.72 2°55.75 332.4 4 329 11.2
2003-06-30 06:43:26 51°13.72 2°55.75 331.9 4.4 328 10.3
2003-06-30 06:43:32 51°13.73 2°55.74 332.4 4.7 329 9.8
2003-06-30 06:43:36 51°13.73 2°55.74 332.6 4.9 328 9.5
2003-06-30 06:43:42 51°13.74 2°55.73 332.8 5.2 329 9.7
2003-06-30 06:43:48 51°13.75 2°55.72 332.9 5.4 328 9.7
2003-06-30 06:43:52 51°13.75 2°55.72 332.7 5.6 328 9.4
2003-06-30 06:43:56 51°13.76 2°55.71 332.7 5.7 328 9.7
2003-06-30 06:44:02 51°13.76 2°55.71 333.1 5.9 328 9.5
2003-06-30 06:44:06 51°13.77 2°55.7 333.5 6.1 329 9.4
2003-06-30 06:44:12 51°13.78 2°55.69 333.6 6.2 328 9.4
2003-06-30 06:44:16 51°13.79 2°55.69 333.8 6.3 329 9.4
2003-06-30 06:44:22 51°13.79 2°55.68 334.5 6.4 330 9.4
2003-06-30 06:44:28 51°13.8 2°55.67 335.3 6.6 331 9.5
2003-06-30 06:44:32 51°13.81 2°55.66 336.2 6.7 332 9.3
2003-06-30 06:44:36 51°13.82 2°55.66 337.2 6.8 333 9.5
2003-06-30 06:44:42 51°13.83 2°55.65 338.2 7 334 9.5
2003-06-30 06:44:46 51°13.84 2°55.64 339.3 7.1 335 9.5
2003-06-30 06:44:52 51°13.85 2°55.64 340.1 7.1 336 9.5
2003-06-30 06:44:56 51°13.85 2°55.63 340.7 7.2 336 9.1
2003-06-30 06:45:02 51°13.86 2°55.62 341.1 7.4 336 9
2003-06-30 06:45:08 51°13.88 2°55.62 341.5 7.5 336 9.2
2003-06-30 06:45:12 51°13.88 2°55.61 341.7 7.5 336 9.6
2003-06-30 06:45:16 51°13.89 2°55.61 342 7.6 337 10.1
2003-06-30 06:45:22 51°13.9 2°55.6 343 7.7 338 10
2003-06-30 06:45:28 51°13.92 2°55.59 343.5 8 338 10
2003-06-30 06:45:32 51°13.92 2°55.58 343.3 8.2 338 9.9
2003-06-30 06:45:36 51°13.93 2°55.58 342.7 8.4 337 9.9
2003-06-30 06:45:42 51°13.95 2°55.57 342.7 8.6 338 9.4
2003-06-30 06:45:46 51°13.95 2°55.56 342.7 8.8 337 9.5
2003-06-30 06:45:52 51°13.97 2°55.55 342.3 8.9 337 9.6
2003-06-30 06:45:56 51°13.98 2°55.55 341.8 9.1 337 9.8
2003-06-30 06:46:02 51°13.99 2°55.54 340.9 9.2 335 9.7
2003-06-30 06:46:08 51°14.01 2°55.53 340.5 9.3 336 9.2
2003-06-30 06:46:12 51°14.02 2°55.52 341.1 9.4 338 9.4
2003-06-30 06:46:16 51°14.02 2°55.52 341.7 9.4 337 9.5
2003-06-30 06:46:22 51°14.04 2°55.51 340.2 9.4 335 9.7
2003-06-30 06:46:26 51°14.05 2°55.5 338 9.5 332 9.8
2003-06-30 06:46:32 51°14.06 2°55.49 337.2 9.5 332 9.8
2003-06-30 06:46:36 51°14.07 2°55.48 337.2 9.5 332 9.9
2003-06-30 06:46:42 51°14.09 2°55.47 336.8 9.5 331 9.8
2003-06-30 06:46:48 51°14.1 2°55.45 336.4 9.6 331 9.8
2003-06-30 06:46:52 51°14.11 2°55.45 336.3 9.6 331 9.8
2003-06-30 06:46:56 51°14.12 2°55.44 336.3 9.6 331 9.7
2003-06-30 06:47:02 51°14.13 2°55.42 336 9.6 330 9.9
2003-06-30 06:47:06 51°14.14 2°55.42 335.1 9.6 329 9.9
2003-06-30 06:47:12 51°14.15 2°55.4 334.4 9.6 329 9.9
2003-06-30 06:47:16 51°14.16 2°55.39 333.8 9.5 328 9.8
2003-06-30 06:47:22 51°14.18 2°55.38 332.7 9.5 327 9.9
2003-06-30 06:47:28 51°14.19 2°55.37 331 9.5 325 10.1
2003-06-30 06:47:32 51°14.2 2°55.36 329.2 9.5 323 10
2003-06-30 06:47:36 51°14.21 2°55.35 327.5 9.5 322 9.9
2003-06-30 06:47:42 51°14.22 2°55.33 325.9 9.5 320 9.9
2003-06-30 06:47:48 51°14.23 2°55.31 323.8 9.6 318 9.9
2003-06-30 06:47:52 51°14.24 2°55.3 322.2 9.6 316 9.9
2003-06-30 06:47:56 51°14.25 2°55.29 321.2 9.6 316 9.9
2003-06-30 06:48:02 51°14.26 2°55.27 319.9 9.7 314 9.9
2003-06-30 06:48:06 51°14.26 2°55.26 318.2 9.7 312 9.9
2003-06-30 06:48:12 51°14.28 2°55.24 316.9 9.8 311 10
2003-06-30 06:48:16 51°14.28 2°55.22 316.4 9.8 311 9.9
2003-06-30 06:48:22 51°14.29 2°55.21 315.7 9.8 310 9.8
2003-06-30 06:48:28 51°14.3 2°55.18 314.9 10 309 9.8
2003-06-30 06:48:32 51°14.31 2°55.17 314 10.1 309 9.9
2003-06-30 06:48:36 51°14.32 2°55.16 313.6 10.2 308 9.9
2003-06-30 06:48:42 51°14.33 2°55.14 313.6 10.3 309 9.7
2003-06-30 06:48:46 51°14.33 2°55.12 313.6 10.4 309 8.8
2003-06-30 06:48:52 51°14.35 2°55.1 313.7 10.5 309 8.9
2003-06-30 06:48:56 51°14.35 2°55.09 314.3 10.5 310 9.3
2003-06-30 06:49:02 51°14.36 2°55.06 315.1 10.6 311 9.4
2003-06-30 06:49:08 51°14.38 2°55.04 316.4 10.7 312 9.3
2003-06-30 06:49:12 51°14.39 2°55.03 317.9 10.8 313 9.2
2003-06-30 06:49:16 51°14.39 2°55.02 319.5 10.8 314 9.3
2003-06-30 06:49:22 51°14.41 2°55 321.2 10.9 316 9.2
2003-06-30 06:49:26 51°14.42 2°54.98 322.7 10.9 316 9.1
2003-06-30 06:49:32 51°14.43 2°54.96 323.7 10.9 317 8.9
2003-06-30 06:49:36 51°14.44 2°54.95 323.8 11 315 8.8
2003-06-30 06:49:42 51°14.45 2°54.93 322.9 11 313 8.9
2003-06-30 06:49:46 51°14.46 2°54.91 321.3 11.1 311 8.6
2003-06-30 06:49:52 51°14.47 2°54.89 320.9 11.1 311 8.7
2003-06-30 06:49:56 51°14.48 2°54.88 322 11.1 312 8.6
2003-06-30 06:50:02 51°14.49 2°54.85 322.9 11.1 313 8.7
2003-06-30 06:50:08 51°14.5 2°54.83 324.7 11 316 8.6
2003-06-30 06:50:12 51°14.51 2°54.82 326.5 11 316 8.6
2003-06-30 06:50:16 51°14.52 2°54.81 328 11 318 8.6
2003-06-30 06:50:22 51°14.54 2°54.79 329.5 11 319 8.5
2003-06-30 06:50:26 51°14.54 2°54.78 330.9 11 321 8.5
2003-06-30 06:50:32 51°14.56 2°54.76 332.4 11 322 8.5
2003-06-30 06:50:36 51°14.57 2°54.75 334.4 10.9 324 8.4
2003-06-30 06:50:42 51°14.58 2°54.73 336.7 10.9 326 8.4
2003-06-30 06:50:48 51°14.6 2°54.71 338.2 10.8 328 8.4
2003-06-30 06:50:52 51°14.61 2°54.7 339.7 10.8 329 8.3
2003-06-30 06:50:56 51°14.62 2°54.69 340.8 10.8 329 8.3
2003-06-30 06:51:02 51°14.64 2°54.68 340.9 10.8 329 8.3
2003-06-30 06:51:06 51°14.65 2°54.67 341.1 10.8 330 8.2
2003-06-30 06:51:12 51°14.66 2°54.66 341.8 10.8 330 8.2
2003-06-30 06:51:16 51°14.67 2°54.65 343.2 10.9 332 8.2
2003-06-30 06:51:22 51°14.69 2°54.63 345.2 11 334 8.3
2003-06-30 06:51:28 51°14.71 2°54.62 347.1 11.1 337 8.4
2003-06-30 06:51:32 51°14.72 2°54.62 348.1 11.2 337 8.2
2003-06-30 06:51:36 51°14.73 2°54.61 348.7 11.3 338 8.3
2003-06-30 06:51:42 51°14.75 2°54.6 350 11.4 340 8.2
2003-06-30 06:51:46 51°14.76 2°54.59 351.2 11.5 341 8.1
2003-06-30 06:51:52 51°14.78 2°54.58 352.3 11.5 342 8.1
2003-06-30 06:51:56 51°14.79 2°54.58 354 11.5 344 8.1
2003-06-30 06:52:02 51°14.81 2°54.57 355.5 11.5 346 8.1
2003-06-30 06:52:06 51°14.82 2°54.56 356.9 11.5 348 8.1
2003-06-30 06:52:12 51°14.84 2°54.56 357.7 11.5 349 8.1
2003-06-30 06:52:16 51°14.85 2°54.55 357.8 11.5 349 8.1
2003-06-30 06:52:22 51°14.87 2°54.55 358.3 11.6 349 8.1
2003-06-30 06:52:28 51°14.89 2°54.54 358.7 11.6 350 8
2003-06-30 06:52:32 51°14.9 2°54.54 359.4 11.6 351 8
2003-06-30 06:52:36 51°14.91 2°54.54   11.6 351 7.9
2003-06-30 06:52:42 51°14.93 2°54.53 0.6 11.6 352 7.8
2003-06-30 06:52:46 51°14.95 2°54.53 1.5 11.5 353 7.7
2003-06-30 06:52:52 51°14.97 2°54.53 2.1 11.5 353 7.5
2003-06-30 06:52:56 51°14.98 2°54.52 2.6 11.5 353 7.5
2003-06-30 06:53:02 51°15 2°54.52 2.8 11.4 353 7.3
2003-06-30 06:53:08 51°15.02 2°54.52 2.1 11.4 352 7.4
2003-06-30 06:53:12 51°15.03 2°54.51 1.5 11.4 352 7.2
2003-06-30 06:53:16 51°15.04 2°54.51 1.1 11.4 351 7.1
2003-06-30 06:53:22 51°15.06 2°54.51 0.6 11.3 351 7.1
2003-06-30 06:53:28 51°15.08 2°54.5   11.3 350 7.1
2003-06-30 06:53:32 51°15.09 2°54.5 359.6 11.3 349 7.1
2003-06-30 06:53:42 51°15.12 2°54.49 358.9 11.3 349 -999
2003-06-30 06:53:48 51°15.14 2°54.48 358.7 11.4 348 7.2
2003-06-30 06:53:52 51°15.15 2°54.48 358.6 11.4 348 7.3
2003-06-30 06:53:56 51°15.16 2°54.47 358.6 11.5 348 7.3
2003-06-30 06:54:00 51°15.18 2°54.47 357.5 11.5 346 7.4
2003-06-30 06:54:08 51°15.2 2°54.46 356.8 11.5 345 7.4
2003-06-30 06:54:12 51°15.21 2°54.45 356 11.6 345 7.5
2003-06-30 06:54:16 51°15.23 2°54.45 354.2 11.6 343 7.5
2003-06-30 06:54:22 51°15.24 2°54.44 352.8 11.7 342 7.6
2003-06-30 06:54:26 51°15.26 2°54.43 352.2 11.7 341 7.6
2003-06-30 06:54:32 51°15.28 2°54.42 352.7 11.7 343 7.6
2003-06-30 06:54:36 51°15.29 2°54.41 353.9 11.7 343 7.7
2003-06-30 06:54:42 51°15.31 2°54.41 354.9 11.7 345 7.7
2003-06-30 06:54:48 51°15.33 2°54.4 356 11.6 347 7.8
2003-06-30 06:54:52 51°15.34 2°54.4 357.7 11.6 348 7.8
2003-06-30 06:54:56 51°15.35 2°54.39 359.8 11.6 351 7.9
2003-06-30 06:55:02 51°15.37 2°54.39 1.4 11.6 353 7.9
2003-06-30 06:55:06 51°15.38 2°54.39 4.2 11.5 356 8
2003-06-30 06:55:12 51°15.4 2°54.38 5.8 11.5 356 8.1
2003-06-30 06:55:16 51°15.41 2°54.38 7.1 11.5 357 8.1
2003-06-30 06:55:22 51°15.43 2°54.38 8.2 11.4 359 8.2
2003-06-30 06:55:28 51°15.45 2°54.38 9.4 11.4 1 8.2
2003-06-30 06:55:32 51°15.46 2°54.38 10.3 11.4 1 8.2
2003-06-30 06:55:36 51°15.48 2°54.38 10.8 11.4 1 8.3
2003-06-30 06:55:42 51°15.5 2°54.38 10.1 11.4   8.3
2003-06-30 06:55:46 51°15.51 2°54.38 10.1 11.4 1 8.3
2003-06-30 06:55:52 51°15.53 2°54.38 10.4 11.4 1 8.4
2003-06-30 06:55:56 51°15.54 2°54.38 10.7 11.4 1 8.5
2003-06-30 06:56:02 51°15.56 2°54.38 10.7 11.4 1 8.5
2003-06-30 06:56:08 51°15.58 2°54.39 10.6 11.4   8.6
2003-06-30 06:56:12 51°15.59 2°54.39 10.5 11.4   8.6
2003-06-30 06:56:16 51°15.6 2°54.39 10.5 11.4 1 8.6
2003-06-30 06:56:22 51°15.62 2°54.39 10.7 11.4 1 8.6
2003-06-30 06:56:28 51°15.64 2°54.39 10.9 11.3 1 8.7
2003-06-30 06:56:32 51°15.65 2°54.39 10.4 11.4   8.8
2003-06-30 06:56:36 51°15.67 2°54.39 9 11.4 358 8.8
2003-06-30 06:56:42 51°15.69 2°54.38 8.3 11.4 358 8.8
2003-06-30 06:56:46 51°15.7 2°54.38 7.5 11.5 357 9
2003-06-30 06:56:52 51°15.72 2°54.38 7 11.4 357 9
2003-06-30 06:56:56 51°15.73 2°54.38 6.7 11.5 357 9.1
2003-06-30 06:57:02 51°15.75 2°54.38 6.5 11.5 357 9.1
2003-06-30 06:57:08 51°15.77 2°54.38 6.2 11.5 356 9.1
2003-06-30 06:57:12 51°15.78 2°54.37 6.5 11.5 357 9.2
2003-06-30 06:57:16 51°15.79 2°54.37 7.5 11.4 358 9.3
2003-06-30 06:57:22 51°15.81 2°54.37 8.3 11.4 359 9.3
2003-06-30 06:57:26 51°15.83 2°54.37 8.7 11.4 358 9.4
2003-06-30 06:57:32 51°15.84 2°54.37 8.7 11.4 358 9.4
2003-06-30 06:57:36 51°15.86 2°54.37 7.9 11.4 357 9.5
2003-06-30 06:57:42 51°15.88 2°54.37 6.4 11.5 355 9.5
2003-06-30 06:57:48 51°15.9 2°54.36 4 11.6 351 9.5
2003-06-30 06:57:52 51°15.91 2°54.36 1.5 11.6 349 9.6
2003-06-30 06:57:56 51°15.92 2°54.35 358.8 11.7 347 9.7
2003-06-30 06:58:02 51°15.94 2°54.35 357 11.7 344 9.7
2003-06-30 06:58:06 51°15.95 2°54.34 354.9 11.8 343 9.7
2003-06-30 06:58:12 51°15.97 2°54.33 353.7 11.8 342 9.9
2003-06-30 06:58:16 51°15.98 2°54.32 354.2 11.8 343 9.8
2003-06-30 06:58:22 51°16 2°54.32 356.3 11.7 345 9.8
2003-06-30 06:58:26 51°16.01 2°54.31 358.3 11.5 349 9.9
2003-06-30 06:58:32 51°16.03 2°54.31 0.7 11.4 350 9.9
2003-06-30 06:58:36 51°16.05 2°54.3 3.2 11.3 352 10
2003-06-30 06:58:42 51°16.06 2°54.3 4.3 11.1 353 10.1
2003-06-30 06:58:48 51°16.08 2°54.3 4.6 11 352 10.1
2003-06-30 06:58:52 51°16.09 2°54.29 4 10.9 352 10.2
2003-06-30 06:58:56 51°16.11 2°54.29 2.9 10.7 350 10.2
2003-06-30 06:59:02 51°16.12 2°54.28 1.6 10.5 348 10.2
2003-06-30 06:59:06 51°16.13 2°54.28 0.2 10 347 10.2
2003-06-30 06:59:12 51°16.15 2°54.27 359.2 9.8 345 10.3
2003-06-30 06:59:16 51°16.16 2°54.27 358 9.6 344 10.4
2003-06-30 06:59:22 51°16.17 2°54.26 357.3 9.2 343 10.4
2003-06-30 06:59:28 51°16.19 2°54.26 356.5 8.6 342 10.4
2003-06-30 06:59:32 51°16.2 2°54.25 356 8.2 341 10.4
2003-06-30 06:59:36 51°16.2 2°54.25 355.5 7.8 340 10.5
2003-06-30 06:59:42 51°16.22 2°54.24 355 7.3 339 10.5
2003-06-30 06:59:46 51°16.22 2°54.23 354.6 6.8 337 10.5
2003-06-30 06:59:52 51°16.23 2°54.23 353.8 6.3 337 10.5
2003-06-30 06:59:56 51°16.24 2°54.22 354.1 5.9 335 10.5
2003-06-30 07:00:02 51°16.25 2°54.22 356.6 5.2 339 10.5
2003-06-30 07:00:08 51°16.25 2°54.21 0.5 4.6 340 10.6
2003-06-30 07:00:12 51°16.26 2°54.21 4.3 4.1 341 10.5
2003-06-30 07:00:16 51°16.26 2°54.21 8.7 3.5 343 10.6
2003-06-30 07:00:22 51°16.27 2°54.21 13.4 2.7 341 10.5
2003-06-30 07:00:28 51°16.27 2°54.2 18 1.9 335 10.5
2003-06-30 07:00:32 51°16.27 2°54.2 22.6 1.5 322 10.6
2003-06-30 07:00:36 51°16.27 2°54.2 27.2 1.2 302 10.6
2003-06-30 07:00:42 51°16.27 2°54.2 32.7 1.3 272 10.6
2003-06-30 07:00:48 51°16.27 2°54.19 35.9 1.2 268 10.6
2003-06-30 07:00:52 51°16.27 2°54.19 37.7 1.3 269 10.7
2003-06-30 07:00:56 51°16.27 2°54.19 39.5 1.2 267 10.6
2003-06-30 07:01:02 51°16.27 2°54.19 40.7 1.2 266 10.7
2003-06-30 07:01:08 51°16.27 2°54.18 41.6 1.2 269 10.6
2003-06-30 07:01:12 51°16.27 2°54.18 42.3 1.2 270 10.6
2003-06-30 07:01:16 51°16.27 2°54.18 43.1 1.1 270 10.6
2003-06-30 07:01:22 51°16.27 2°54.18 43.5 1.1 269 10.6
2003-06-30 07:01:26 51°16.27 2°54.18 44.2 1 272 10.6
2003-06-30 07:01:32 51°16.27 2°54.17 45 1 273 10.6
2003-06-30 07:01:36 51°16.27 2°54.17 46.2 1 275 10.6
2003-06-30 07:01:40 51°16.27 2°54.17 47.1 1 275 10.6
2003-06-30 07:01:50 51°16.27 2°54.17 48.8 0.9 279 10.6
2003-06-30 07:01:54 51°16.27 2°54.16 50 0.9 281 10.6
2003-06-30 07:02:00 51°16.27 2°54.16 50.9 0.8 281 10.6
2003-06-30 07:02:04 51°16.27 2°54.16 51.5 0.8 283 10.6
2003-06-30 07:02:10 51°16.27 2°54.16 52.4 0.8 286 10.7
2003-06-30 07:02:14 51°16.27 2°54.16 53.3 0.7 286 10.7
2003-06-30 07:02:20 51°16.27 2°54.16 54.4 0.7 284 10.6
2003-06-30 07:02:24 51°16.27 2°54.15 55.2 0.7 287 10.6
2003-06-30 07:02:28 51°16.27 2°54.15 56.1 0.6 283 10.6
2003-06-30 07:02:36 51°16.27 2°54.15 57.1 0.6 289 10.6
2003-06-30 07:02:40 51°16.27 2°54.15 58 0.5 289 10.6
2003-06-30 07:02:44 51°16.27 2°54.15 58.7 0.5 286 10.6
2003-06-30 07:02:50 51°16.27 2°54.15 59.3 0.5 285 10.5
2003-06-30 07:02:54 51°16.27 2°54.15 59.8 0.5 284 10.6
2003-06-30 07:03:00 51°16.27 2°54.15 60.2 0.5 284 10.7
2003-06-30 07:03:04 51°16.27 2°54.15 60.9 0.5 285 10.7
2003-06-30 07:03:10 51°16.27 2°54.14 61.3 0.5 287 10.6
2003-06-30 07:03:14 51°16.27 2°54.14 61.6 0.4 288 10.6
2003-06-30 07:03:20 51°16.27 2°54.14 61.8 0.4 292 10.6
2003-06-30 07:03:24 51°16.27 2°54.14 62.1 0.4 291 10.6
2003-06-30 07:03:28 51°16.28 2°54.14 62.3 0.5 290 10.6
2003-06-30 07:03:34 51°16.28 2°54.14 62.5 0.4 291 10.6
2003-06-30 07:03:40 51°16.28 2°54.14 62.7 0.4 292 10.6
2003-06-30 07:03:44 51°16.28 2°54.14 63 0.4 295 10.6
2003-06-30 07:03:50 51°16.28 2°54.14 63.2 0.4 293 10.6
2003-06-30 07:03:54 51°16.28 2°54.14 63.3 0.3 294 10.6
2003-06-30 07:04:00 51°16.28 2°54.13 63.6 0.4 293 10.7
2003-06-30 07:04:04 51°16.28 2°54.13 63.8 0.4 298 10.6
2003-06-30 07:04:10 51°16.28 2°54.13 64 0.3 292 10.6
2003-06-30 07:04:14 51°16.28 2°54.13 64.4 0.3 297 10.6
2003-06-30 07:04:20 51°16.28 2°54.13 64.5 0.3 302 10.6
2003-06-30 07:04:24 51°16.28 2°54.13 64.6 0.3 306 10.6
2003-06-30 07:04:28 51°16.28 2°54.13 64.9 0.3 304 10.6
2003-06-30 07:04:34 51°16.28 2°54.13 65 0.3 305 10.6
2003-06-30 07:04:40 51°16.28 2°54.13 65.2 0.3 302 10.7
2003-06-30 07:04:50 51°16.28 2°54.13 65.6 0.2 298 10.7
2003-06-30 07:04:54 51°16.28 2°54.13 65.9 0.3 310 10.7
2003-06-30 07:05:00 51°16.28 2°54.13 66.1 0.2 308 10.7
2003-06-30 07:05:04 51°16.28 2°54.13 66.3 0.3 313 10.6
2003-06-30 07:05:10 51°16.28 2°54.13 66.6 0.2 309 10.6
2003-06-30 07:05:16 51°16.28 2°54.13 66.8 0.2 311 10.6
2003-06-30 07:05:20 51°16.28 2°54.13 66.9 0.2 300 10.7
2003-06-30 07:05:24 51°16.28 2°54.13 67.1 0.3 305 10.7
2003-06-30 07:05:30 51°16.28 2°54.13 67.3 0.2 312 10.6
2003-06-30 07:05:32 51°16.28 2°54.13 67.6 0.2 312 10.6
2003-06-30 07:05:40 51°16.28 2°54.13 67.8 0.2 308 10.6
2003-06-30 07:05:44 51°16.28 2°54.13 68 0.2 315 10.7
2003-06-30 07:05:50 51°16.28 2°54.12 68.2 0.2 314 10.7
2003-06-30 07:05:54 51°16.28 2°54.12 68.4 0.2 314 10.7
2003-06-30 07:06:00 51°16.28 2°54.12 68.8 0.1 302 10.7
2003-06-30 07:06:04 51°16.28 2°54.12 69 0.2 309 10.7
2003-06-30 07:06:10 51°16.28 2°54.12 69.4 0.1 298 10.7
2003-06-30 07:06:14 51°16.28 2°54.12 69.8 0.1 317 10.6
2003-06-30 07:06:20 51°16.28 2°54.12 70.4 0.1 321 10.6
2003-06-30 07:06:24 51°16.28 2°54.12 70.7 0.1 325 10.7
2003-06-30 07:06:30 51°16.28 2°54.12 71.1 0.1 286 10.7
2003-06-30 07:06:36 51°16.28 2°54.12 71.2 0.1 282 10.7
2003-06-30 07:06:40 51°16.28 2°54.12 71.8 0.1 271 10.6
2003-06-30 07:06:44 51°16.28 2°54.12 72.1 0.1 283 10.6
2003-06-30 07:06:50 51°16.28 2°54.12 72.5 0.1 237 10.7
2003-06-30 07:06:56 51°16.28 2°54.12 72.8   255 10.7
2003-06-30 07:07:00 51°16.28 2°54.12 73 0.1 214 10.7
2003-06-30 07:07:04 51°16.28 2°54.12 73.2 0.1 275 10.7
2003-06-30 07:07:10 51°16.28 2°54.12 73.3   208 10.6
2003-06-30 07:07:16 51°16.28 2°54.12 73.5 0.1 226 10.6
2003-06-30 07:07:20 51°16.28 2°54.12 73.6 0.1 222 10.6
2003-06-30 07:07:24 51°16.28 2°54.12 73.7   254 10.6
2003-06-30 07:07:30 51°16.28 2°54.12 73.9 0.1 201 10.6
2003-06-30 07:07:36 51°16.28 2°54.12 74 0.1 234 10.6
2003-06-30 07:07:40 51°16.28 2°54.12 74 0.1 191 10.7
2003-06-30 07:07:44 51°16.28 2°54.12 74   194 10.6
2003-06-30 07:07:50 51°16.28 2°54.12 74 0.1 198 10.7
2003-06-30 07:07:54 51°16.28 2°54.12 74 0.1 222 10.7
2003-06-30 07:08:00 51°16.28 2°54.12 74.2 0.1 184 10.6
2003-06-30 07:08:04 51°16.28 2°54.12 74.2   249 10.7
2003-06-30 07:08:10 51°16.28 2°54.12 74.1 0.2 189 10.8
2003-06-30 07:08:16 51°16.28 2°54.12 74 0.1 161 10.7
2003-06-30 07:08:20 51°16.28 2°54.12 74.1 0.2 166 10.7
2003-06-30 07:08:24 51°16.28 2°54.12 74.2 0.1 174 10.6
2003-06-30 07:08:30 51°16.28 2°54.12 74.2 0.2 203 10.7
2003-06-30 07:08:34 51°16.28 2°54.12 74 0.1 195 10.7
2003-06-30 07:08:40 51°16.28 2°54.12 74.1 0.1 198 10.7
2003-06-30 07:08:44 51°16.28 2°54.12 74 0.1 197 10.7
2003-06-30 07:08:50 51°16.28 2°54.12 74 0.1 190 10.7
2003-06-30 07:08:56 51°16.28 2°54.12 74 0.1 189 10.7
2003-06-30 07:09:00 51°16.28 2°54.12 74 0.1 192 10.7
2003-06-30 07:09:04 51°16.28 2°54.12 73.9 0.2 202 10.7
2003-06-30 07:09:10 51°16.28 2°54.12 74 0.1 172 10.6
2003-06-30 07:09:16 51°16.28 2°54.12 74.1 0.2 189 10.6
2003-06-30 07:09:20 51°16.28 2°54.12 74.2 0.2 197 10.7
2003-06-30 07:09:24 51°16.28 2°54.12 74.5 0.2 190 10.7
2003-06-30 07:09:30 51°16.28 2°54.12 74.8 0.2 172 10.6
2003-06-30 07:09:34 51°16.28 2°54.12 75 0.2 193 10.7
2003-06-30 07:09:40 51°16.28 2°54.12 75.2 0.2 187 10.7
2003-06-30 07:09:44 51°16.28 2°54.12 75.2 0.2 184 10.7
2003-06-30 07:09:50 51°16.28 2°54.12 75.2 0.1 186 10.7
2003-06-30 07:09:56 51°16.28 2°54.12 75.1 0.2 192 10.6
2003-06-30 07:10:00 51°16.28 2°54.12 75 0.2 187 10.7
2003-06-30 07:10:04 51°16.28 2°54.12 74.8 0.1 188 10.7
2003-06-30 07:10:10 51°16.28 2°54.12 74.7 0.2 189 10.7
2003-06-30 07:10:14 51°16.28 2°54.12 74.7 0.2 190 10.6
2003-06-30 07:10:20 51°16.28 2°54.12 74.8 0.2 191 10.6
2003-06-30 07:10:24 51°16.27 2°54.12 74.8 0.2 177 10.6
2003-06-30 07:10:30 51°16.27 2°54.12 74.9 0.2 151 10.6
2003-06-30 07:10:36 51°16.27 2°54.12 75.7 0.6 105 10.6
2003-06-30 07:10:40 51°16.27 2°54.12 77.6 0.8 99 10.7
2003-06-30 07:10:44 51°16.27 2°54.13 80.3 1.1 100 10.7
2003-06-30 07:10:50 51°16.27 2°54.13 83.7 1.6 99 10.7
2003-06-30 07:10:54 51°16.27 2°54.13 87.8 2 106 10.6
2003-06-30 07:11:00 51°16.27 2°54.14 92.2 2.3 109 10.7
2003-06-30 07:11:04 51°16.27 2°54.14 96.9 2.5 114 10.7
2003-06-30 07:11:10 51°16.27 2°54.15 101.7 2.9 119 10.6
2003-06-30 07:11:16 51°16.27 2°54.16 106.5 3.3 126 10.6
2003-06-30 07:11:20 51°16.26 2°54.16 111.7 3.5 130 10.7
2003-06-30 07:11:24 51°16.26 2°54.17 117 3.8 135 10.6
2003-06-30 07:11:30 51°16.25 2°54.17 122.3 4.1 141 10.6
2003-06-30 07:11:36 51°16.25 2°54.18 127.6 4.4 147 10.6
2003-06-30 07:11:40 51°16.24 2°54.18 133 4.6 151 10.7
2003-06-30 07:11:44 51°16.24 2°54.19 138.4 4.8 155 10.6
2003-06-30 07:11:50 51°16.23 2°54.19 144 5.1 161 10.6
2003-06-30 07:11:54 51°16.22 2°54.19 149.7 5.5 167 10.6
2003-06-30 07:12:00 51°16.22 2°54.2 155.3 5.6 171 10.6
2003-06-30 07:12:04 51°16.21 2°54.2 161.2 5.9 175 10.6
2003-06-30 07:12:10 51°16.2 2°54.2 167.5 6.6 180 10.6
2003-06-30 07:12:16 51°16.19 2°54.2 174.4 7.2 188 10.5
2003-06-30 07:12:20 51°16.18 2°54.19 181.5 7.6 192 10.5
2003-06-30 07:12:24 51°16.17 2°54.19 189 7.9 197 10.5
2003-06-30 07:12:30 51°16.16 2°54.18 196.2 8.4 204 10.5
2003-06-30 07:12:34 51°16.15 2°54.17 203.8 8.8 210 10.4
2003-06-30 07:12:40 51°16.14 2°54.16 211.3 9 217 10.4
2003-06-30 07:12:44 51°16.13 2°54.15 218.8 9.2 221 10.4
2003-06-30 07:12:50 51°16.12 2°54.13 226.4 9.4 229 10.4
2003-06-30 07:12:56 51°16.11 2°54.11 234 9.6 237 10.4
2003-06-30 07:13:00 51°16.1 2°54.09 241.7 9.7 241 10.4
2003-06-30 07:13:04 51°16.1 2°54.08 249.3 9.7 246 10.5
2003-06-30 07:13:10 51°16.1 2°54.05 257.1 9.8 254 10.4
2003-06-30 07:13:14 51°16.09 2°54.03 264.6 9.8 262 10.4
2003-06-30 07:13:20 51°16.09 2°54.01 272.3 9.8 267 10.4
2003-06-30 07:13:24 51°16.09 2°53.99 279.1 9.9 271 10.5
2003-06-30 07:13:30 51°16.09 2°53.97 285.7 10 278 10.4
2003-06-30 07:13:36 51°16.1 2°53.94 292.3 10.1 285 10.5
2003-06-30 07:13:40 51°16.1 2°53.92 299.2 10.1 289 10.5
2003-06-30 07:13:44 51°16.11 2°53.91 306.1 10.1 294 10.5
2003-06-30 07:13:50 51°16.12 2°53.88 312.5 10.1 301 10.5
2003-06-30 07:13:56 51°16.13 2°53.86 317.3 10.2 306 10.6
2003-06-30 07:14:00 51°16.13 2°53.85 321.4 10.2 309 10.6
2003-06-30 07:14:04 51°16.14 2°53.83 325.1 10.3 312 10.6
2003-06-30 07:14:10 51°16.15 2°53.81 328.3 10.4 315 10.7
2003-06-30 07:14:14 51°16.16 2°53.8 330.2 10.6 317 10.7
2003-06-30 07:14:20 51°16.18 2°53.78 330.9 10.8 317 10.8
2003-06-30 07:14:24 51°16.18 2°53.77 331.4 11 318 10.7
2003-06-30 07:14:30 51°16.2 2°53.75 331.7 11.2 318 10.6
2003-06-30 07:14:36 51°16.21 2°53.73 331.5 11.4 318 10.7
2003-06-30 07:14:40 51°16.22 2°53.71 331.5 11.5 318 10.6
2003-06-30 07:14:44 51°16.23 2°53.7 331.6 11.7 318 10.7
2003-06-30 07:14:50 51°16.25 2°53.68 331.8 11.8 319 10.7
2003-06-30 07:14:54 51°16.26 2°53.67 332.2 12 319 10.7
2003-06-30 07:15:00 51°16.27 2°53.65 332.3 12.1 319 10.7
2003-06-30 07:15:04 51°16.28 2°53.63 332.3 12.2 319 10.9
2003-06-30 07:15:10 51°16.3 2°53.61 331.9 12.5 318 10.9
2003-06-30 07:15:16 51°16.31 2°53.59 331.8 12.8 319 11
2003-06-30 07:15:20 51°16.32 2°53.57 331.6 12.9 318 10.9
2003-06-30 07:15:24 51°16.33 2°53.56 331.3 13.1 318 11
2003-06-30 07:15:30 51°16.35 2°53.53 331.3 13.3 318 10.9
2003-06-30 07:15:34 51°16.36 2°53.52 331.4 13.5 318 11
2003-06-30 07:15:40 51°16.38 2°53.49 331.3 13.6 318 10.9
2003-06-30 07:15:44 51°16.39 2°53.48 331.2 13.7 318 11
2003-06-30 07:15:50 51°16.41 2°53.45 330.9 13.8 318 10.9
2003-06-30 07:15:54 51°16.42 2°53.44 331.1 13.8 319 11
2003-06-30 07:16:00 51°16.43 2°53.41 331.1 13.8 318 11
2003-06-30 07:16:04 51°16.45 2°53.39 331 13.8 318 10.9
2003-06-30 07:16:10 51°16.46 2°53.37 331.1 13.9 318 10.9
2003-06-30 07:16:16 51°16.48 2°53.35 331.3 13.9 319 10.9
2003-06-30 07:16:20 51°16.49 2°53.33 331.3 14 318 10.8
2003-06-30 07:16:24 51°16.5 2°53.31 331.1 14 318 10.9
2003-06-30 07:16:30 51°16.52 2°53.29 330.9 14 318 10.8
2003-06-30 07:16:34 51°16.53 2°53.27 331.1 14 318 10.8
2003-06-30 07:16:40 51°16.55 2°53.25 331.2 14 318 10.7
2003-06-30 07:16:44 51°16.56 2°53.23 331.2 14 319 10.8
2003-06-30 07:16:50 51°16.58 2°53.21 331.5 13.9 319 10.5
2003-06-30 07:16:56 51°16.6 2°53.18 331.7 13.9 320 10.4
2003-06-30 07:17:00 51°16.61 2°53.17 332.5 13.8 321 10.4
2003-06-30 07:17:04 51°16.62 2°53.15 332.4 13.8 321 10.5
2003-06-30 07:17:10 51°16.64 2°53.13 332.8 13.8 322 10.3
2003-06-30 07:17:14 51°16.65 2°53.11 332.8 13.8 322 10.3
2003-06-30 07:17:20 51°16.67 2°53.09 332.3 13.8 322 10.2
2003-06-30 07:17:24 51°16.68 2°53.08 332 13.7 322 10.1
2003-06-30 07:17:30 51°16.7 2°53.06 331.7 13.7 322 10
2003-06-30 07:17:36 51°16.72 2°53.03 331.3 13.6 322 9.9
2003-06-30 07:17:40 51°16.73 2°53.02 331.1 13.6 322 9.8
2003-06-30 07:17:44 51°16.74 2°53 330.9 13.6 321 9.7
2003-06-30 07:17:50 51°16.76 2°52.98 330.8 13.6 322 9.6
2003-06-30 07:17:54 51°16.77 2°52.97 330.8 13.5 322 9.3
2003-06-30 07:18:00 51°16.79 2°52.94 331.2 13.4 322 8.8
2003-06-30 07:18:04 51°16.8 2°52.93 331.5 13.4 322 8.4
2003-06-30 07:18:10 51°16.82 2°52.91 331.3 13.2 322 8
2003-06-30 07:18:14 51°16.83 2°52.89 331.2 12.9 322 7.9
2003-06-30 07:18:20 51°16.85 2°52.87 331.1 12.8 322 7.9
2003-06-30 07:18:24 51°16.86 2°52.86 330.5 12.8 321 7.9
2003-06-30 07:18:30 51°16.87 2°52.84 330.5 12.6 322 7.9
2003-06-30 07:18:36 51°16.89 2°52.82 330.8 12.8 322 7.9
2003-06-30 07:18:40 51°16.9 2°52.8 331.3 13 322 8
2003-06-30 07:18:44 51°16.91 2°52.79 331.7 13 322 8
2003-06-30 07:18:50 51°16.93 2°52.77 331.9 12.9 322 8.2
2003-06-30 07:18:54 51°16.94 2°52.75 332.3 13 323 8.3
2003-06-30 07:19:00 51°16.96 2°52.73 332.3 13.1 322 8.2
2003-06-30 07:19:04 51°16.97 2°52.72 332.3 13.1 323 8.4
2003-06-30 07:19:10 51°16.99 2°52.7 331.9 13.2 322 8.6
2003-06-30 07:19:16 51°17 2°52.68 331.5 13.2 321 8.8
2003-06-30 07:19:20 51°17.02 2°52.66 330.9 13.3 321 9
2003-06-30 07:19:24 51°17.03 2°52.65 330.6 13.4 321 9
2003-06-30 07:19:30 51°17.04 2°52.62 330.3 13.4 320 8.7
2003-06-30 07:19:34 51°17.06 2°52.61 330.3 13.4 321 8.5
2003-06-30 07:19:40 51°17.07 2°52.59 330.4 13.2 321 8.4
2003-06-30 07:19:44 51°17.08 2°52.57 331.3 13.2 322 8.3
2003-06-30 07:19:50 51°17.1 2°52.55 331.5 13.1 322 8.3
2003-06-30 07:19:56 51°17.12 2°52.53 331.9 13.1 323 8.4
2003-06-30 07:20:00 51°17.13 2°52.51 332.3 13.2 322 8.4
2003-06-30 07:20:04 51°17.14 2°52.5 332.1 13.2 321 8.6
2003-06-30 07:20:10 51°17.16 2°52.48 331.8 13.3 322 8.7
2003-06-30 07:20:16 51°17.18 2°52.46 331.2 13.3 321 8.7
2003-06-30 07:20:20 51°17.19 2°52.44 331.1 13.3 321 8.7
2003-06-30 07:20:24 51°17.2 2°52.43 330.1 13.4 319 8.7
2003-06-30 07:20:30 51°17.22 2°52.4 330.1 13.4 320 8.9
2003-06-30 07:20:34 51°17.23 2°52.39 330.3 13.4 320 9
2003-06-30 07:20:40 51°17.24 2°52.36 330.2 13.4 320 9
2003-06-30 07:20:44 51°17.26 2°52.35 330.9 13.4 321 9.1
2003-06-30 07:20:50 51°17.27 2°52.33 331.4 13.4 321 9.1
2003-06-30 07:20:56 51°17.29 2°52.3 331.7 13.4 322 9.1
2003-06-30 07:21:00 51°17.3 2°52.29 331.9 13.5 321 9.2
2003-06-30 07:21:04 51°17.31 2°52.28 331.8 13.4 322 9.1
2003-06-30 07:21:10 51°17.33 2°52.25 332.3 13.4 321 9.2
2003-06-30 07:21:14 51°17.34 2°52.24 331.7 13.4 321 9.2
2003-06-30 07:21:20 51°17.36 2°52.22 331.4 13.4 321 9.3
2003-06-30 07:21:24 51°17.37 2°52.2 331.2 13.4 321 9.1
2003-06-30 07:21:30 51°17.39 2°52.18 331.1 13.4 321 9.3
2003-06-30 07:21:36 51°17.41 2°52.16 330.9 13.4 320 9.2
2003-06-30 07:21:40 51°17.42 2°52.14 330.9 13.4 320 9.3
2003-06-30 07:21:44 51°17.43 2°52.12 330.7 13.4 320 9.3
2003-06-30 07:21:50 51°17.45 2°52.1 330.6 13.4 320 9.3
2003-06-30 07:21:56 51°17.46 2°52.08 330.9 13.4 321 9.2
2003-06-30 07:22:00 51°17.48 2°52.06 331.3 13.4 320 9.2
2003-06-30 07:22:04 51°17.49 2°52.05 331.6 13.4 321 9.3
2003-06-30 07:22:10 51°17.5 2°52.03 331.5 13.4 321 9.3
2003-06-30 07:22:16 51°17.52 2°52.01 331.7 13.3 321 9.3
2003-06-30 07:22:20 51°17.53 2°51.99 331.7 13.4 321 9.1
2003-06-30 07:22:24 51°17.54 2°51.98 331.7 13.3 321 9.4
2003-06-30 07:22:30 51°17.56 2°51.95 332 13.3 321 9.4
2003-06-30 07:22:36 51°17.58 2°51.93 331.9 13.4 321 9.1
2003-06-30 07:22:40 51°17.59 2°51.92 331.2 13.3 320 9.3
2003-06-30 07:22:44 51°17.6 2°51.9 330.9 13.3 320 9.3
2003-06-30 07:22:50 51°17.62 2°51.88 330.4 13.4 320 9.4
2003-06-30 07:22:54 51°17.63 2°51.86 330.6 13.3 320 9
2003-06-30 07:23:00 51°17.65 2°51.84 330.9 13.3 321 9
2003-06-30 07:23:04 51°17.66 2°51.82 331.4 13.3 321 9
2003-06-30 07:23:10 51°17.68 2°51.8 331.7 13.3 321 9
2003-06-30 07:23:16 51°17.69 2°51.78 331.8 13.3 321 9
2003-06-30 07:23:20 51°17.7 2°51.77 332.1 13.3 321 9
2003-06-30 07:23:24 51°17.72 2°51.75 331.8 13.3 321 9.1
2003-06-30 07:23:30 51°17.73 2°51.73 331.5 13.3 320 8.9
2003-06-30 07:23:34 51°17.74 2°51.71 331.2 13.3 320 9
2003-06-30 07:23:40 51°17.76 2°51.69 330.9 13.3 320 9
2003-06-30 07:23:44 51°17.77 2°51.68 331 13.3 320 8.8
2003-06-30 07:23:50 51°17.79 2°51.65 331.5 13.3 321 8.9
2003-06-30 07:23:56 51°17.81 2°51.63 331.6 13.3 321 9
2003-06-30 07:24:00 51°17.82 2°51.62 331.7 13.3 321 8.9
2003-06-30 07:24:04 51°17.83 2°51.6 331.7 13.4 321 9
2003-06-30 07:24:10 51°17.85 2°51.58 331.7 13.4 321 9.1
2003-06-30 07:24:16 51°17.86 2°51.56 331.9 13.4 321 9.1
2003-06-30 07:24:20 51°17.88 2°51.54 332 13.4 321 9.2
2003-06-30 07:24:24 51°17.89 2°51.53 332 13.4 321 9.2
2003-06-30 07:24:30 51°17.9 2°51.51 331.6 13.5 321 9.4
2003-06-30 07:24:36 51°17.92 2°51.48 331.2 13.5 320 9.3
2003-06-30 07:24:40 51°17.93 2°51.47 331 13.5 320 9.6
2003-06-30 07:24:44 51°17.94 2°51.45 330.9 13.5 320 9.6
2003-06-30 07:24:50 51°17.96 2°51.43 331.2 13.5 321 9.6
2003-06-30 07:24:56 51°17.98 2°51.41 331.8 13.6 321 9.7
2003-06-30 07:25:00 51°17.99 2°51.39 332 13.6 322 9.9
2003-06-30 07:25:04 51°18 2°51.38 331.9 13.6 321 10
2003-06-30 07:25:10 51°18.02 2°51.35 331.3 13.7 320 10.2
2003-06-30 07:25:16 51°18.04 2°51.33 330.9 13.7 319 10.2
2003-06-30 07:25:20 51°18.05 2°51.31 330.5 13.7 320 10.3
2003-06-30 07:25:24 51°18.06 2°51.3 330.3 13.7 319 10.5
2003-06-30 07:25:30 51°18.08 2°51.27 330.6 13.7 320 10.5
2003-06-30 07:25:36 51°18.1 2°51.25 330.9 13.2 319 10.6
2003-06-30 07:25:40 51°18.11 2°51.24 331.2 13 320 10.9
2003-06-30 07:25:44 51°18.12 2°51.22 331.5 12.8 320 11
2003-06-30 07:25:50 51°18.13 2°51.2 331.8 12.5 320 11.2
2003-06-30 07:25:54 51°18.14 2°51.18 332 12.2 320 11.2
2003-06-30 07:26:00 51°18.16 2°51.16 331.9 12 319 11.4
2003-06-30 07:26:04 51°18.17 2°51.15 331.6 11.9 319 11.5
2003-06-30 07:26:10 51°18.18 2°51.13 331.7 11.7 319 11.5
2003-06-30 07:26:16 51°18.2 2°51.11 331.9 11.6 319 11.6
2003-06-30 07:26:20 51°18.21 2°51.1 332 11.6 319 11.7
2003-06-30 07:26:24 51°18.22 2°51.08 331.9 11.5 319 11.8
2003-06-30 07:26:30 51°18.23 2°51.06 331.9 11.5 319 11.9
2003-06-30 07:26:36 51°18.25 2°51.04 331.9 11.4 319 11.9
2003-06-30 07:26:40 51°18.26 2°51.03 331.9 11.4 319 12
2003-06-30 07:26:44 51°18.26 2°51.01 331.9 11.4 318 12
2003-06-30 07:26:50 51°18.28 2°50.99 331.8 11.4 319 12
2003-06-30 07:26:56 51°18.29 2°50.97 331.7 11.4 318 12.2
2003-06-30 07:27:00 51°18.3 2°50.96 331.6 11.4 318 12.2
2003-06-30 07:27:04 51°18.31 2°50.95 331.3 11.4 318 12.3
2003-06-30 07:27:10 51°18.33 2°50.93 331.6 11.3 319 12.3
2003-06-30 07:27:16 51°18.34 2°50.91 333.3 11.2 321 12.4
2003-06-30 07:27:20 51°18.35 2°50.9 335.1 11.1 322 12.5
2003-06-30 07:27:24 51°18.36 2°50.89 337.6 10.6 324 12.5
2003-06-30 07:27:30 51°18.37 2°50.87 340.2 9.9 326 12.5
2003-06-30 07:27:34 51°18.38 2°50.86 343.2 9 330 12.6
2003-06-30 07:27:40 51°18.4 2°50.85 346.2 8.5 331 12.7
2003-06-30 07:27:44 51°18.4 2°50.85 349.3 8 333 12.8
2003-06-30 07:27:50 51°18.41 2°50.84 352.4 7.4 335 12.8
2003-06-30 07:27:56 51°18.43 2°50.83 355.1 6.9 338 12.9
2003-06-30 07:28:00 51°18.43 2°50.83 357.8 6.5 339 12.9
2003-06-30 07:28:04 51°18.44 2°50.82 0.3 6.2 341 13
2003-06-30 07:28:10 51°18.45 2°50.82 3.3 5.7 344 12.9
2003-06-30 07:28:14 51°18.45 2°50.82 6.5 5.2 347 13
2003-06-30 07:28:20 51°18.46 2°50.82 9.7 4.9 350 12.9
2003-06-30 07:28:24 51°18.47 2°50.81 12.8 4.7 352 13
2003-06-30 07:28:30 51°18.47 2°50.81 15.5 4.3 355 13.1
2003-06-30 07:28:36 51°18.48 2°50.81 18.3 4 358 13
2003-06-30 07:28:40 51°18.48 2°50.81 20.5 3.8 359 13.1
2003-06-30 07:28:44 51°18.49 2°50.81 23 3.6 1 13.1
2003-06-30 07:28:50 51°18.49 2°50.81 25.2 3.4 3 13.1
2003-06-30 07:28:56 51°18.5 2°50.81 27.2 3.2 5 13.1
2003-06-30 07:29:00 51°18.5 2°50.82 29.1 3.1 7 13.2
2003-06-30 07:29:04 51°18.51 2°50.82 31 3 9 13.1
2003-06-30 07:29:10 51°18.51 2°50.82 32.9 2.8 11 13.1
2003-06-30 07:29:16 51°18.52 2°50.82 34.7 2.7 14 13.1
2003-06-30 07:29:20 51°18.52 2°50.82 36.3 2.6 14 13.2
2003-06-30 07:29:24 51°18.52 2°50.82 38 2.5 16 13.1
2003-06-30 07:29:30 51°18.52 2°50.82 39.5 2.3 19 13.1
2003-06-30 07:29:36 51°18.53 2°50.83 41 2.3 21 13.3
2003-06-30 07:29:40 51°18.53 2°50.83 42.6 2.2 22 13.2
2003-06-30 07:29:44 51°18.53 2°50.83 44.2 2.2 25 13.2
2003-06-30 07:29:50 51°18.54 2°50.83 45.7 2.1 27 13.2
2003-06-30 07:29:54 51°18.54 2°50.83 47.1 2 31 13.1
2003-06-30 07:30:00 51°18.54 2°50.84 48.7 1.9 32 13.2
2003-06-30 07:30:04 51°18.54 2°50.84 50.5 1.9 35 13.2
2003-06-30 07:30:10 51°18.54 2°50.84 52 1.8 37 13.2
2003-06-30 07:30:16 51°18.55 2°50.84 53.5 1.8 42 13.2
2003-06-30 07:30:20 51°18.55 2°50.85 55.1 1.7 44 13.3
2003-06-30 07:30:24 51°18.55 2°50.85 56.6 1.6 49 13.3
2003-06-30 07:30:30 51°18.55 2°50.85 58.5 1.7 53 13.2
2003-06-30 07:30:34 51°18.55 2°50.85 60.3 1.5 59 13.1
2003-06-30 07:30:40 51°18.55 2°50.86 62.2 1.6 61 13.2
2003-06-30 07:30:44 51°18.55 2°50.86 64.1 1.6 65 13.2
2003-06-30 07:30:50 51°18.55 2°50.86 66.3 1.5 71 13.3
2003-06-30 07:30:56 51°18.56 2°50.87 68.4 1.4 76 13.1
2003-06-30 07:31:00 51°18.56 2°50.87 70.1 1.3 79 13.2
2003-06-30 07:31:04 51°18.56 2°50.87 71.8 1.3 87 13.2
2003-06-30 07:31:10 51°18.56 2°50.88 73.4 1.3 89 13.2
2003-06-30 07:31:16 51°18.56 2°50.88 75 1.2 97 13.2
2003-06-30 07:31:20 51°18.55 2°50.88 76.5 1.2 99 13.3
2003-06-30 07:31:24 51°18.55 2°50.88 78 1.2 103 13.3
2003-06-30 07:31:30 51°18.55 2°50.89 79.2 1.1 106 13.2
2003-06-30 07:31:36 51°18.55 2°50.89 80.3 1.1 115 13.2
2003-06-30 07:31:40 51°18.55 2°50.89 81.2 1.1 116 13.2
2003-06-30 07:31:44 51°18.55 2°50.89 82.1 1.1 121 13.2
2003-06-30 07:31:50 51°18.55 2°50.89 83.1 0.9 137 13.3
2003-06-30 07:31:56 51°18.55 2°50.89 84.3 0.8 158 13.2
2003-06-30 07:32:00 51°18.55 2°50.89 85.4 0.8 160 13.1
2003-06-30 07:32:04 51°18.55 2°50.9 86.5 0.8 162 13.2
2003-06-30 07:32:10 51°18.55 2°50.9 87.6 0.9 165 13.1
2003-06-30 07:32:14 51°18.55 2°50.9 88.6 1 168 13.2
2003-06-30 07:32:20 51°18.54 2°50.9 89.6 0.9 169 13.2
2003-06-30 07:32:24 51°18.54 2°50.9 90.5 1 173 13.2
2003-06-30 07:32:30 51°18.54 2°50.9 91.5 1 173 13.1
2003-06-30 07:32:36 51°18.54 2°50.9 92.6 1.1 181 13.1
2003-06-30 07:32:40 51°18.54 2°50.9 93.5 1.1 180 13.1
2003-06-30 07:32:44 51°18.54 2°50.9 94.3 1.1 181 13
2003-06-30 07:32:50 51°18.53 2°50.9 95.4 1.2 186 13.1
2003-06-30 07:32:54 51°18.53 2°50.9 96.4 1.2 187 13.1
2003-06-30 07:33:00 51°18.53 2°50.9 97.2 1.3 188 13.2
2003-06-30 07:33:04 51°18.53 2°50.9 97.9 1.2 188 13.1
2003-06-30 07:33:10 51°18.53 2°50.9 98.7 1.3 191 13.1
2003-06-30 07:33:16 51°18.53 2°50.89 99.4 1.3 190 13.1
2003-06-30 07:33:20 51°18.52 2°50.89 100.2 1.4 191 13.1
2003-06-30 07:33:24 51°18.52 2°50.89 100.8 1.4 192 13.1
2003-06-30 07:33:30 51°18.52 2°50.89 101.3 1.5 193 13.1
2003-06-30 07:33:36 51°18.52 2°50.89 102 1.5 194 13.1
2003-06-30 07:33:40 51°18.52 2°50.89 102.7 1.5 193 13.1
2003-06-30 07:33:44 51°18.51 2°50.89 103.6 1.5 192 13.1
2003-06-30 07:33:50 51°18.51 2°50.89 104.3 1.6 190 13.1
2003-06-30 07:33:54 51°18.51 2°50.89 104.9 1.6 189 13.1
2003-06-30 07:34:00 51°18.51 2°50.89 105.8 1.6 188 13.1
2003-06-30 07:34:04 51°18.51 2°50.89 106.3 1.6 190 13.2
2003-06-30 07:34:10 51°18.5 2°50.89 107.2 1.6 191 13
2003-06-30 07:34:16 51°18.5 2°50.89 107.5 1.7 193 13.1
2003-06-30 07:34:20 51°18.5 2°50.89 108.1 1.6 194 13
2003-06-30 07:34:24 51°18.5 2°50.89 108.6 1.6 196 13.1
2003-06-30 07:34:30 51°18.49 2°50.88 108.8 1.7 196 13.1
2003-06-30 07:34:34 51°18.49 2°50.88 109.4 1.7 199 13.1
2003-06-30 07:34:40 51°18.49 2°50.88 109.9 1.7 199 13.1
2003-06-30 07:34:44 51°18.49 2°50.88 110.4 1.7 200 13
2003-06-30 07:34:50 51°18.49 2°50.88 111 1.7 202 13
2003-06-30 07:34:56 51°18.48 2°50.88 111.6 1.7 203 13
2003-06-30 07:35:00 51°18.48 2°50.88 112 1.8 204 13
2003-06-30 07:35:04 51°18.48 2°50.88 112.6 1.7 206 13
2003-06-30 07:35:10 51°18.48 2°50.87 113.2 1.8 206 12.9
2003-06-30 07:35:16 51°18.47 2°50.87 113.6 1.7 208 12.9
2003-06-30 07:35:20 51°18.47 2°50.87 114.2 1.8 208 13
2003-06-30 07:35:24 51°18.47 2°50.87 114.8 1.8 207 13
2003-06-30 07:35:30 51°18.47 2°50.87 115.4 1.8 207 13.1
2003-06-30 07:35:36 51°18.46 2°50.86 115.8 1.8 206 13
2003-06-30 07:35:40 51°18.46 2°50.86 116.1 1.8 205 13
2003-06-30 07:35:44 51°18.46 2°50.86 116.6 1.8 204 13.1
2003-06-30 07:35:50 51°18.46 2°50.86 116.8 1.8 205 13
2003-06-30 07:35:56 51°18.46 2°50.86 116.9 1.8 203 13
2003-06-30 07:36:00 51°18.45 2°50.86 117.3 1.8 204 13.1
2003-06-30 07:36:04 51°18.45 2°50.85 117.3 1.9 204 13
2003-06-30 07:36:10 51°18.45 2°50.85 117.5 1.8 201 12.9
2003-06-30 07:36:14 51°18.45 2°50.85 117.6 1.7 201 12.9
2003-06-30 07:36:20 51°18.44 2°50.85 117.5 1.8 200 12.9
2003-06-30 07:36:24 51°18.44 2°50.85 117.8 1.8 200 12.9
2003-06-30 07:36:30 51°18.44 2°50.85 117.8 1.8 199 12.9
2003-06-30 07:36:36 51°18.44 2°50.85 117.7 1.8 197 13
2003-06-30 07:36:40 51°18.44 2°50.85 117.7 1.8 195 13
2003-06-30 07:36:44 51°18.43 2°50.84 117.8 1.8 193 12.9
2003-06-30 07:36:50 51°18.43 2°50.84 117.8 1.8 192 13
2003-06-30 07:36:56 51°18.43 2°50.84 117.8 1.9 189 13.1
2003-06-30 07:37:00 51°18.43 2°50.84 117.7 1.8 187 12.9
2003-06-30 07:37:04 51°18.42 2°50.84 117.6 1.8 186 13
2003-06-30 07:37:10 51°18.42 2°50.84 117.5 1.9 184 12.9
2003-06-30 07:37:16 51°18.42 2°50.84 117.2 1.9 183 13
2003-06-30 07:37:20 51°18.42 2°50.84 117 1.9 182 13
2003-06-30 07:37:24 51°18.41 2°50.84 116.7 1.9 181 13
2003-06-30 07:37:30 51°18.41 2°50.84 116.5 2 180 12.9
2003-06-30 07:37:36 51°18.41 2°50.84 116.3 2 174 12.9
2003-06-30 07:37:40 51°18.4 2°50.84 116.2 2.2 167 12.8
2003-06-30 07:37:44 51°18.4 2°50.84 114.7 2.4 158 12.9
2003-06-30 07:37:50 51°18.4 2°50.85 111.7 2.6 146 12.7
2003-06-30 07:37:56 51°18.4 2°50.85 108 2.7 134 12.8
2003-06-30 07:38:00 51°18.39 2°50.86 103.7 2.8 128 12.8
2003-06-30 07:38:04 51°18.39 2°50.86 98.9 2.9 121 12.8
2003-06-30 07:38:10 51°18.39 2°50.87 94.1 3 112 12.9
2003-06-30 07:38:16 51°18.39 2°50.88 89 3 100 12.9
2003-06-30 07:38:20 51°18.39 2°50.88 83.6 3.2 96 12.8
2003-06-30 07:38:24 51°18.39 2°50.89 78.6 3.2 88 12.8
2003-06-30 07:38:30 51°18.39 2°50.9 75.3 3.5 84 12.8
2003-06-30 07:38:34 51°18.39 2°50.9 73.3 4 78 12.9
2003-06-30 07:38:40 51°18.39 2°50.92 72 4.6 76 12.8
2003-06-30 07:38:44 51°18.39 2°50.92 71 5.2 74 12.7
2003-06-30 07:38:50 51°18.4 2°50.94 70.5 6 73 12.7
2003-06-30 07:38:56 51°18.4 2°50.96 70.5 6.7 71 12.6
2003-06-30 07:39:00 51°18.4 2°50.97 70.2 7.1 71 12.7
2003-06-30 07:39:04 51°18.4 2°50.98 70 7.4 70 12.7
2003-06-30 07:39:10 51°18.41 2°51 68.9 7.8 68 12.7
2003-06-30 07:39:16 51°18.42 2°51.02 67.8 8.2 67 12.7
2003-06-30 07:39:20 51°18.42 2°51.03 67.5 8.4 67 12.7
2003-06-30 07:39:24 51°18.42 2°51.05 66.7 8.5 65 12.7
2003-06-30 07:39:30 51°18.43 2°51.07 66.3 8.7 65 12.6
2003-06-30 07:39:36 51°18.44 2°51.09 66 8.9 64 12.6
2003-06-30 07:39:40 51°18.44 2°51.1 65.8 9 64 12.7
2003-06-30 07:39:44 51°18.44 2°51.12 66 9 64 12.6
2003-06-30 07:39:50 51°18.45 2°51.14 66.2 9.3 65 12.7
2003-06-30 07:39:56 51°18.46 2°51.16 66.3 9.6 65 12.7
2003-06-30 07:40:00 51°18.46 2°51.18 66.6 9.7 65 12.6
2003-06-30 07:40:04 51°18.47 2°51.19 66.6 9.9 64 12.6
2003-06-30 07:40:10 51°18.47 2°51.22 66.4 10.3 65 12.5
2003-06-30 07:40:16 51°18.48 2°51.25 66.2 10.9 64 12.5
2003-06-30 07:40:20 51°18.49 2°51.26 66.4 11.1 65 12.5
2003-06-30 07:40:24 51°18.49 2°51.28 67 11.4 66 12.5
2003-06-30 07:40:30 51°18.5 2°51.31 66.4 11.6 64 12.5
2003-06-30 07:40:36 51°18.51 2°51.34 66.4 11.7 64 12.5
2003-06-30 07:40:40 51°18.51 2°51.36 66.5 11.8 64 12.4
2003-06-30 07:40:44 51°18.52 2°51.37 66.6 11.9 65 12.4
2003-06-30 07:40:50 51°18.53 2°51.4 66.6 12 65 12.4
2003-06-30 07:40:54 51°18.53 2°51.42 66.8 12 65 12.4
2003-06-30 07:41:00 51°18.54 2°51.45 66.9 12.1 65 12.5
2003-06-30 07:41:04 51°18.55 2°51.47 67.1 12.1 65 12.3
2003-06-30 07:41:10 51°18.56 2°51.5 67.1 12.1 64 12.4
2003-06-30 07:41:16 51°18.57 2°51.53 66.8 12.1 65 12.3
2003-06-30 07:41:20 51°18.57 2°51.55 66.8 12.2 64 12.2
2003-06-30 07:41:24 51°18.58 2°51.57 66.7 12.2 64 12.2
2003-06-30 07:41:30 51°18.59 2°51.6 66.4 12.2 64 12.2
2003-06-30 07:41:36 51°18.59 2°51.63 66.9 12.2 66 12.3
2003-06-30 07:41:40 51°18.6 2°51.65 67.6 12.2 66 12.2
2003-06-30 07:41:44 51°18.61 2°51.67 68.2 12.2 67 12.2
2003-06-30 07:41:50 51°18.61 2°51.7 68.9 12.2 67 12.2
2003-06-30 07:41:56 51°18.62 2°51.73 69.4 12.2 68 12.1
2003-06-30 07:42:00 51°18.63 2°51.75 69.2 12.3 67 12.1
2003-06-30 07:42:04 51°18.63 2°51.77 68.7 12.3 67 12.1
2003-06-30 07:42:10 51°18.64 2°51.8 69 12.3 67 12
2003-06-30 07:42:16 51°18.65 2°51.83 69.2 12.2 67 12
2003-06-30 07:42:20 51°18.65 2°51.85 69.2 12.2 68 12
2003-06-30 07:42:24 51°18.66 2°51.87 69.3 12.3 68 12
2003-06-30 07:42:30 51°18.66 2°51.9 69.2 12.3 67 11.9
2003-06-30 07:42:36 51°18.67 2°51.93 69.2 12.3 67 11.9
2003-06-30 07:42:40 51°18.68 2°51.95 69 12.3 67 11.9
2003-06-30 07:42:44 51°18.68 2°51.97 68.9 12.3 67 11.8
2003-06-30 07:42:50 51°18.69 2°52 68.9 12.3 67 11.8
2003-06-30 07:42:56 51°18.7 2°52.03 69.4 12.2 68 11.8
2003-06-30 07:43:00 51°18.7 2°52.05 69.6 12.2 68 11.7
2003-06-30 07:43:04 51°18.71 2°52.07 69.6 12.3 68 11.7
2003-06-30 07:43:10 51°18.72 2°52.1 69.4 12.2 67 11.8
2003-06-30 07:43:14 51°18.72 2°52.12 69.1 12.3 67 11.7
2003-06-30 07:43:20 51°18.73 2°52.15 69 12.3 67 11.6
2003-06-30 07:43:24 51°18.74 2°52.17 68.9 12.3 67 11.6
2003-06-30 07:43:30 51°18.74 2°52.2 69.1 12.3 67 11.6
2003-06-30 07:43:36 51°18.75 2°52.23 69 12.3 67 11.5
2003-06-30 07:43:40 51°18.76 2°52.25 69.1 12.3 68 11.4
2003-06-30 07:43:44 51°18.76 2°52.27 69.2 12.3 67 11.5
2003-06-30 07:43:50 51°18.77 2°52.3 68.8 12.3 67 11.4
2003-06-30 07:43:56 51°18.78 2°52.33 69 12.3 67 11.4
2003-06-30 07:44:00 51°18.78 2°52.35 69.2 12.3 67 11.4
2003-06-30 07:44:04 51°18.79 2°52.37 68.9 12.3 67 11.3
2003-06-30 07:44:10 51°18.8 2°52.4 68.9 12.3 67 11.4
2003-06-30 07:44:16 51°18.81 2°52.43 68.9 12.3 66 11.3
2003-06-30 07:44:20 51°18.81 2°52.45 68.6 12.3 67 11.3
2003-06-30 07:44:24 51°18.82 2°52.47 69.4 12.3 67 11.3
2003-06-30 07:44:30 51°18.82 2°52.5 69.1 12.3 67 11.1
2003-06-30 07:44:36 51°18.83 2°52.53 68.9 12.3 67 11.3
2003-06-30 07:44:40 51°18.84 2°52.55 69.1 12.3 67 11.2
2003-06-30 07:44:44 51°18.84 2°52.57 69.3 12.3 67 11.2
2003-06-30 07:44:50 51°18.85 2°52.6 69.3 12.3 68 11.3
2003-06-30 07:44:56 51°18.86 2°52.63 69.2 12.3 67 11.2
2003-06-30 07:45:00 51°18.86 2°52.65 69 12.3 67 11.2
2003-06-30 07:45:04 51°18.87 2°52.67 69.3 12.3 68 11.1
2003-06-30 07:45:10 51°18.88 2°52.7 69.8 12.3 68 11.1
2003-06-30 07:45:16 51°18.89 2°52.73 70.1 12.3 68 11.1
2003-06-30 07:45:20 51°18.89 2°52.75 69.6 12.3 67 11.1
2003-06-30 07:45:24 51°18.9 2°52.77 69.5 12.3 67 11.1
2003-06-30 07:45:30 51°18.9 2°52.8 69.1 12.3 67 11
2003-06-30 07:45:34 51°18.91 2°52.82 68.7 12.3 67 11.1
2003-06-30 07:45:40 51°18.92 2°52.85 69.5 12.3 68 11
2003-06-30 07:45:44 51°18.92 2°52.87 69.3 12.4 67 11
2003-06-30 07:45:50 51°18.93 2°52.9 68.9 12.3 67 11.1
2003-06-30 07:45:56 51°18.94 2°52.93 69.5 12.3 67 11
2003-06-30 07:46:00 51°18.94 2°52.95 69.4 12.3 67 11
2003-06-30 07:46:04 51°18.95 2°52.97 68.9 12.3 67 11
2003-06-30 07:46:10 51°18.96 2°53 69.1 12.3 67 11
2003-06-30 07:46:16 51°18.97 2°53.03 69.5 12.3 67 11
2003-06-30 07:46:20 51°18.97 2°53.05 69.4 12.3 67 11
2003-06-30 07:46:24 51°18.98 2°53.07 69.4 12.3 67 11
2003-06-30 07:46:30 51°18.99 2°53.1 69 12.3 66 10.9
2003-06-30 07:46:36 51°18.99 2°53.13 68.9 12.3 66 11
2003-06-30 07:46:40 51°19 2°53.15 68.8 12.3 67 11
2003-06-30 07:46:44 51°19 2°53.17 69.2 12.3 67 10.9
2003-06-30 07:46:50 51°19.01 2°53.2 69.2 12.4 67 11
2003-06-30 07:46:56 51°19.02 2°53.23 69.5 12.3 68 11
2003-06-30 07:47:00 51°19.03 2°53.25 69.6 12.3 67 10.9
2003-06-30 07:47:04 51°19.03 2°53.27 69.6 12.3 68 11.1
2003-06-30 07:47:10 51°19.04 2°53.3 69.9 12.3 68 11
2003-06-30 07:47:14 51°19.04 2°53.32 69.9 12.3 68 11
2003-06-30 07:47:20 51°19.05 2°53.35 69.8 12.3 67 11
2003-06-30 07:47:24 51°19.06 2°53.37 69.6 12.3 67 10.9
2003-06-30 07:47:30 51°19.06 2°53.4 68.9 12.4 66 11
2003-06-30 07:47:36 51°19.07 2°53.43 69 12.3 67 11
2003-06-30 07:47:40 51°19.08 2°53.45 69.1 12.3 67 11.1
2003-06-30 07:47:44 51°19.08 2°53.47 69.1 12.3 67 11.1
2003-06-30 07:47:50 51°19.09 2°53.5 68.9 12.3 66 11
2003-06-30 07:47:54 51°19.1 2°53.52 68.9 12.4 67 11.1
2003-06-30 07:48:00 51°19.11 2°53.55 68.9 12.3 67 11.2
2003-06-30 07:48:04 51°19.11 2°53.57 69.2 12.4 67 11.2
2003-06-30 07:48:10 51°19.12 2°53.6 69.7 12.4 67 11.1
2003-06-30 07:48:16 51°19.13 2°53.63 69.6 12.4 68 11.1
2003-06-30 07:48:20 51°19.13 2°53.66 69.4 12.4 67 11.1
2003-06-30 07:48:24 51°19.14 2°53.68 69 12.4 67 11
2003-06-30 07:48:30 51°19.15 2°53.71 68.9 12.4 66 11.1
2003-06-30 07:48:36 51°19.15 2°53.74 69.1 12.4 67 11.1
2003-06-30 07:48:40 51°19.16 2°53.76 69.1 12.4 67 11.1
2003-06-30 07:48:44 51°19.16 2°53.78 69.4 12.4 68 11.1
2003-06-30 07:48:50 51°19.17 2°53.81 69.2 12.4 67 11.1
2003-06-30 07:48:56 51°19.18 2°53.84 69.1 12.4 66 11.1
2003-06-30 07:49:00 51°19.19 2°53.86 69 12.4 67 11.1
2003-06-30 07:49:04 51°19.19 2°53.88 69 12.4 67 11.1
2003-06-30 07:49:10 51°19.2 2°53.91 69 12.4 67 11.1
2003-06-30 07:49:16 51°19.21 2°53.94 69.1 12.4 67 11.2
2003-06-30 07:49:20 51°19.21 2°53.96 69.2 12.3 67 11.1
2003-06-30 07:49:24 51°19.22 2°53.98 69.1 12.4 67 11.1
2003-06-30 07:49:30 51°19.23 2°54.01 68.8 12.3 66 11.1
2003-06-30 07:49:36 51°19.23 2°54.04 69.1 12.4 68 11.1
2003-06-30 07:49:40 51°19.24 2°54.06 69.5 12.4 67 11.1
2003-06-30 07:49:44 51°19.24 2°54.08 69.4 12.4 67 11.1
2003-06-30 07:49:50 51°19.25 2°54.11 68.9 12.4 67 11
2003-06-30 07:49:56 51°19.26 2°54.14 69.1 12.4 67 11.1
2003-06-30 07:50:00 51°19.27 2°54.16 69 12.4 67 11
2003-06-30 07:50:04 51°19.27 2°54.18 68.9 12.4 67 11.1
2003-06-30 07:50:10 51°19.28 2°54.21 69 12.4 67 11.1
2003-06-30 07:50:16 51°19.29 2°54.24 69.3 12.4 67 11
2003-06-30 07:50:20 51°19.29 2°54.26 69.4 12.4 67 11.1
2003-06-30 07:50:24 51°19.3 2°54.28 69.2 12.4 67 11
2003-06-30 07:50:30 51°19.31 2°54.31 69.2 12.4 67 11.1
2003-06-30 07:50:36 51°19.31 2°54.34 69 12.4 67 11.1
2003-06-30 07:50:40 51°19.32 2°54.36 69.3 12.4 68 11.1
2003-06-30 07:50:44 51°19.32 2°54.38 69.5 12.5 68 11.1
2003-06-30 07:50:50 51°19.33 2°54.41 69.5 12.4 68 11
2003-06-30 07:50:54 51°19.34 2°54.43 69.4 12.4 68 11
2003-06-30 07:51:00 51°19.35 2°54.46 69.5 12.4 68 11
2003-06-30 07:51:04 51°19.35 2°54.48 69.6 12.4 68 11
2003-06-30 07:51:10 51°19.36 2°54.51 69.6 12.4 68 11.1
2003-06-30 07:51:16 51°19.37 2°54.54 69.1 12.4 67 11.1
2003-06-30 07:51:20 51°19.37 2°54.56 69 12.4 67 11
2003-06-30 07:51:24 51°19.38 2°54.59 69.1 12.4 67 11.1
2003-06-30 07:51:30 51°19.38 2°54.62 69.2 12.4 67 11.1
2003-06-30 07:51:34 51°19.39 2°54.64 69.3 12.5 67 11.1
2003-06-30 07:51:40 51°19.4 2°54.67 68.9 12.4 67 11.1
2003-06-30 07:51:44 51°19.4 2°54.69 69.2 12.4 67 11.1
2003-06-30 07:51:50 51°19.41 2°54.72 69.6 12.4 68 11.1
2003-06-30 07:51:54 51°19.42 2°54.74 69.8 12.4 68 11.1
2003-06-30 07:52:00 51°19.42 2°54.77 70.1 12.4 68 11.1
2003-06-30 07:52:04 51°19.43 2°54.79 69.6 12.4 67 11.1
2003-06-30 07:52:10 51°19.44 2°54.82 69.2 12.4 67 11.1
2003-06-30 07:52:16 51°19.45 2°54.85 69.2 12.4 68 11.1
2003-06-30 07:52:20 51°19.45 2°54.87 69.2 12.3 67 11.1
2003-06-30 07:52:24 51°19.46 2°54.89 69.4 12.3 68 11.2
2003-06-30 07:52:30 51°19.46 2°54.92 69.2 12.4 67 11.2
2003-06-30 07:52:34 51°19.47 2°54.94 69 12.3 67 11.2
2003-06-30 07:52:40 51°19.48 2°54.97 68.7 12.3 67 11.2
2003-06-30 07:52:50 51°19.49 2°55.02 69.3 12.3 67 11.2
2003-06-30 07:52:54 51°19.5 2°55.04 69.2 12.3 67 11.1
2003-06-30 07:53:00 51°19.5 2°55.07 69.1 12.3 67 11.2
2003-06-30 07:53:04 51°19.51 2°55.09 68.9 12.3 67 11.2
2003-06-30 07:53:10 51°19.52 2°55.12 69.3 12.3 68 11.1
2003-06-30 07:53:14 51°19.52 2°55.14 69.7 12.3 68 11.2
2003-06-30 07:53:20 51°19.53 2°55.17 69.8 12.3 67 11.1
2003-06-30 07:53:24 51°19.54 2°55.19 69.6 12.3 68 11.1
2003-06-30 07:53:30 51°19.54 2°55.22 69.6 12.3 67 11.2
2003-06-30 07:53:36 51°19.55 2°55.25 69.3 12.3 67 11.1
2003-06-30 07:53:40 51°19.56 2°55.27 69.4 12.3 67 11.1
2003-06-30 07:53:44 51°19.56 2°55.29 69.2 12.3 67 11.2
2003-06-30 07:53:50 51°19.57 2°55.32 69.1 12.3 67 11.2
2003-06-30 07:53:56 51°19.58 2°55.35 69.1 12.3 67 11.1
2003-06-30 07:54:00 51°19.58 2°55.37 69 12.3 67 11.1
2003-06-30 07:54:04 51°19.59 2°55.39 69.1 12.3 67 11.1
2003-06-30 07:54:10 51°19.6 2°55.42 68.9 12.3 67 11.1
2003-06-30 07:54:16 51°19.6 2°55.45 69 12.3 67 11.1
2003-06-30 07:54:20 51°19.61 2°55.47 69.4 12.3 67 11.1
2003-06-30 07:54:24 51°19.62 2°55.49 69.5 12.3 67 11.1
2003-06-30 07:54:30 51°19.62 2°55.52 69.5 12.3 67 11.1
2003-06-30 07:54:36 51°19.63 2°55.55 69.6 12.3 67 11.1
2003-06-30 07:54:40 51°19.64 2°55.57 69.4 12.3 67 11.1
2003-06-30 07:54:44 51°19.64 2°55.59 69.4 12.4 67 11.2
2003-06-30 07:54:50 51°19.65 2°55.62 69.5 12.4 67 11.1
2003-06-30 07:54:56 51°19.66 2°55.65 69.5 12.4 67 11
2003-06-30 07:55:00 51°19.66 2°55.67 69.2 12.5 66 11
2003-06-30 07:55:04 51°19.67 2°55.69 69 12.5 66 11.1
2003-06-30 07:55:10 51°19.68 2°55.72 69.4 12.5 67 11
2003-06-30 07:55:16 51°19.69 2°55.75 69.8 12.5 67 11.1
2003-06-30 07:55:20 51°19.69 2°55.77 69.6 12.5 67 11.1
2003-06-30 07:55:24 51°19.7 2°55.79 69.4 12.4 67 11.1
2003-06-30 07:55:30 51°19.71 2°55.82 68.9 12.4 66 11.1
2003-06-30 07:55:36 51°19.71 2°55.85 69 12.4 66 11.1
2003-06-30 07:55:40 51°19.72 2°55.87 68.9 12.4 67 11.1
2003-06-30 07:55:44 51°19.73 2°55.89 69.4 12.4 67 11.1
2003-06-30 07:55:50 51°19.73 2°55.92 69.5 12.4 67 11.1
2003-06-30 07:55:56 51°19.74 2°55.95 69.7 12.4 67 11
2003-06-30 07:56:00 51°19.75 2°55.98 69.8 12.4 67 11
2003-06-30 07:56:04 51°19.75 2°56 69.7 12.4 67 11
2003-06-30 07:56:10 51°19.76 2°56.03 69.7 12.4 67 11
2003-06-30 07:56:16 51°19.77 2°56.06 69.9 12.3 67 11
2003-06-30 07:56:20 51°19.77 2°56.08 69.8 12.3 67 11
2003-06-30 07:56:24 51°19.78 2°56.1 70 12.3 67 10.9
2003-06-30 07:56:30 51°19.79 2°56.13 69.8 12.3 67 10.9
2003-06-30 07:56:36 51°19.8 2°56.16 69.4 12.3 66 11
2003-06-30 07:56:40 51°19.8 2°56.18 69.1 12.3 66 11
2003-06-30 07:56:44 51°19.81 2°56.2 69 12.3 67 10.9
2003-06-30 07:56:50 51°19.81 2°56.23 69.1 12.3 67 11
2003-06-30 07:56:56 51°19.82 2°56.26 69.5 12.3 67 10.9
2003-06-30 07:57:00 51°19.83 2°56.28 69.4 12.3 67 10.9
2003-06-30 07:57:04 51°19.83 2°56.3 69.4 12.3 67 11
2003-06-30 07:57:10 51°19.84 2°56.33 69.4 12.3 67 10.9
2003-06-30 07:57:16 51°19.85 2°56.36 69.3 12.3 67 10.9
2003-06-30 07:57:20 51°19.85 2°56.38 69.4 12.3 67 11